.
WxDataArchive / Data Records for 2015-11-08
2015-11-07 November 2015 2015-11-09

Data Records for Sunday, 08 November 2015

Time	Temp	Chill	HIndex	Humid	Dewpt	 Wind 	HiWind	WindDir	Rain 	Barom
-----	----	-----	------	-----	-----	------	------	-------	-----	-----
00:00	33.5	33.5	33.5	88	30.3	0	0	---	0.00	30.372 
00:05	33.4	33.4	33.4	88	30.2	0	0	---	0.00	30.372 
00:10	33.2	33.2	33.2	88	30.0	0	0	---	0.00	30.372 
00:15	33.1	33.1	33.1	88	29.9	0	0	---	0.00	30.371 
00:20	33.1	33.1	33.1	88	29.9	0	0	---	0.00	30.371 
00:25	32.9	32.9	32.9	88	29.7	0	0	---	0.00	30.371 
00:30	32.8	32.8	32.8	88	29.6	0	0	---	0.00	30.377 
00:35	32.8	32.8	32.8	88	29.6	0	0	---	0.00	30.377 
00:40	32.7	32.7	32.7	88	29.5	0	0	---	0.00	30.377 
00:45	32.7	32.7	32.7	89	29.8	0	0	---	0.00	30.383 
00:50	32.7	32.7	32.7	89	29.8	0	0	---	0.00	30.383 
00:55	32.7	32.7	32.7	89	29.8	0	0	---	0.00	30.383 
01:00	32.7	32.7	32.7	89	29.8	0	0	---	0.00	30.384 
01:05	32.5	32.5	32.5	89	29.6	0	0	---	0.00	30.384 
01:10	32.5	32.5	32.5	89	29.6	0	0	---	0.00	30.384 
01:15	32.7	32.7	32.7	90	30.1	0	0	---	0.00	30.383 
01:20	32.7	32.7	32.7	90	30.1	0	0	---	0.00	30.383 
01:25	32.5	32.5	32.5	90	29.9	0	0	---	0.00	30.383 
01:30	32.4	32.4	32.4	90	29.8	0	0	---	0.00	30.384 
01:35	32.2	32.2	32.2	90	29.6	0	0	---	0.00	30.384 
01:40	32.1	32.1	32.1	90	29.5	0	0	---	0.00	30.384 
01:45	31.9	31.9	31.9	90	29.3	0	0	---	0.00	30.383 
01:50	31.8	31.8	31.8	90	29.2	0	0	---	0.00	30.383 
01:55	31.8	31.8	31.8	90	29.2	0	0	---	0.00	30.383 
02:00	31.6	31.6	31.6	90	29.0	0	0	---	0.00	30.382 
02:05	31.6	31.6	31.6	90	29.0	0	0	---	0.00	30.382 
02:10	31.5	31.5	31.5	90	28.9	0	0	---	0.00	30.382 
02:15	31.5	31.5	31.5	90	28.9	0	0	---	0.00	30.386 
02:20	31.3	31.3	31.3	90	28.7	0	0	---	0.00	30.386 
02:25	31.3	31.3	31.3	90	28.7	0	0	---	0.00	30.386 
02:30	31.3	31.3	31.3	90	28.7	0	0	---	0.00	30.387 
02:35	31.2	31.2	31.2	90	28.6	0	0	---	0.00	30.387 
02:40	31.2	31.2	31.2	90	28.6	0	0	---	0.00	30.387 
02:45	31.2	31.2	31.2	90	28.6	0	0	---	0.00	30.389 
02:50	31.2	31.2	31.2	91	28.9	0	0	---	0.00	30.389 
02:55	31.0	31.0	31.0	91	28.7	0	0	---	0.00	30.389 
03:00	31.0	31.0	31.0	91	28.7	0	0	---	0.00	30.399 
03:05	30.9	30.9	30.9	91	28.6	0	0	---	0.00	30.399 
03:10	30.7	30.7	30.7	91	28.4	0	0	---	0.00	30.399 
03:15	30.6	30.6	30.6	91	28.3	0	0	---	0.00	30.391 
03:20	30.6	30.6	30.6	91	28.3	0	0	---	0.00	30.391 
03:25	30.4	30.4	30.4	91	28.1	0	0	---	0.00	30.391 
03:30	30.4	30.4	30.4	91	28.1	0	0	---	0.00	30.390 
03:35	30.4	30.4	30.4	91	28.1	0	0	---	0.00	30.390 
03:40	30.4	30.4	30.4	91	28.1	0	0	---	0.00	30.390 
03:45	30.4	30.4	30.4	91	28.1	0	0	---	0.00	30.387 
03:50	30.3	30.3	30.3	91	28.0	0	0	---	0.00	30.387 
03:55	30.3	30.3	30.3	91	28.0	0	0	---	0.00	30.387 
04:00	30.3	30.3	30.3	91	28.0	0	0	---	0.00	30.387 
04:05	30.1	30.1	30.1	91	27.8	0	0	---	0.00	30.387 
04:10	30.1	30.1	30.1	91	27.8	0	0	---	0.00	30.387 
04:15	30.1	30.1	30.1	91	27.8	0	0	---	0.00	30.394 
04:20	30.1	30.1	30.1	92	28.1	0	0	---	0.00	30.394 
04:25	30.1	30.1	30.1	92	28.1	0	0	---	0.00	30.394 
04:30	30.1	30.1	30.1	92	28.1	0	0	---	0.00	30.393 
04:35	30.1	30.1	30.1	92	28.1	0	0	---	0.00	30.393 
04:40	30.1	30.1	30.1	92	28.1	0	0	---	0.00	30.393 
04:45	30.1	30.1	30.1	92	28.1	0	0	---	0.00	30.392 
04:50	30.0	30.0	30.0	92	28.0	0	0	---	0.00	30.392 
04:55	30.0	30.0	30.0	92	28.0	0	0	---	0.00	30.392 
05:00	29.8	29.8	29.8	92	27.8	0	0	---	0.00	30.394 
05:05	29.7	29.7	29.7	92	27.7	0	0	---	0.00	30.394 
05:10	29.7	29.7	29.7	92	27.7	0	0	---	0.00	30.394 
05:15	29.5	29.5	29.5	92	27.5	0	0	---	0.00	30.405 
05:20	29.5	29.5	29.5	92	27.5	0	0	---	0.00	30.405 
05:25	29.4	29.4	29.4	92	27.4	0	0	---	0.00	30.405 
05:30	29.4	29.4	29.4	92	27.4	0	0	---	0.00	30.410 
05:35	29.4	29.4	29.4	92	27.4	0	0	---	0.00	30.410 
05:40	29.4	29.4	29.4	92	27.4	0	0	---	0.00	30.410 
05:45	29.4	29.4	29.4	92	27.4	0	0	---	0.00	30.411 
05:50	29.3	29.3	29.3	92	27.3	0	0	---	0.00	30.411 
05:55	29.1	29.1	29.1	92	27.1	0	0	---	0.00	30.411 
06:00	29.1	29.1	29.1	92	27.1	0	0	---	0.00	30.418 
06:05	29.0	29.0	29.0	92	27.0	0	0	---	0.00	30.418 
06:10	29.0	29.0	29.0	92	27.0	0	0	---	0.00	30.418 
06:15	29.0	29.0	29.0	92	27.0	0	0	---	0.00	30.426 
06:20	28.8	28.8	28.8	92	26.8	0	0	---	0.00	30.426 
06:25	28.8	28.8	28.8	92	26.8	0	0	---	0.00	30.426 
06:30	28.8	28.8	28.8	92	26.8	0	0	---	0.00	30.430 
06:35	28.8	28.8	28.8	92	26.8	0	0	---	0.00	30.430 
06:40	28.8	28.8	28.8	92	26.8	0	0	---	0.00	30.430 
06:45	28.8	28.8	28.8	92	26.8	0	0	---	0.00	30.436 
06:50	28.7	28.7	28.7	92	26.7	0	0	---	0.00	30.436 
06:55	28.7	28.7	28.7	92	26.7	0	0	---	0.00	30.436 
07:00	28.7	28.7	28.7	92	26.7	0	0	---	0.00	30.442 
07:05	28.5	28.5	28.5	92	26.5	0	0	---	0.00	30.442 
07:10	28.5	28.5	28.5	92	26.5	0	0	---	0.00	30.442 
07:15	28.5	28.5	28.5	92	26.5	0	0	---	0.00	30.455 
07:20	28.5	28.5	28.5	92	26.5	0	0	---	0.00	30.455 
07:25	28.4	28.4	28.4	92	26.4	0	0	---	0.00	30.455 
07:30	28.4	28.4	28.4	92	26.4	0	0	---	0.00	30.461 
07:35	28.4	28.4	28.4	92	26.4	0	0	---	0.00	30.461 
07:40	28.2	28.2	28.2	92	26.2	0	0	---	0.00	30.461 
07:45	28.4	28.4	28.4	92	26.4	0	0	---	0.00	30.464 
07:50	28.5	28.5	28.5	92	26.5	0	0	---	0.00	30.464 
07:55	28.7	28.7	28.7	92	26.7	0	0	---	0.00	30.464 
08:00	28.8	28.8	28.8	93	27.0	0	0	---	0.00	30.468 
08:05	29.0	29.0	29.0	93	27.2	0	0	---	0.00	30.468 
08:10	29.4	29.4	29.4	93	27.6	0	0	---	0.00	30.468 
08:15	29.8	29.8	29.8	93	28.0	0	0	---	0.00	30.476 
08:20	30.3	30.3	30.3	93	28.5	0	0	---	0.00	30.476 
08:25	31.5	31.5	31.5	95	30.2	0	0	---	0.00	30.476 
08:30	33.2	33.2	33.2	96	32.2	0	0	---	0.00	30.474 
08:35	34.6	34.6	34.6	96	33.6	0	0	---	0.00	30.474 
08:40	35.3	35.3	35.3	95	34.0	0	0	---	0.00	30.474 
08:45	36.5	36.5	36.5	95	35.2	0	0	---	0.00	30.473 
08:50	37.0	37.0	37.0	94	35.4	0	0	---	0.00	30.473 
08:55	37.6	37.6	37.6	94	36.0	0	0	---	0.00	30.473 
09:00	38.2	38.2	38.2	94	36.6	0	0	---	0.00	30.475 
09:05	38.9	38.9	38.9	93	37.1	0	0	---	0.00	30.475 
09:10	39.6	39.6	39.6	92	37.5	0	0	---	0.00	30.475 
09:15	40.3	40.3	40.3	91	37.9	0	0	---	0.00	30.477 
09:20	40.9	40.9	40.9	90	38.2	0	1	315	0.00	30.477 
09:25	41.5	41.5	41.5	88	38.2	0	1	315	0.00	30.477 
09:30	41.8	41.8	41.8	86	37.9	0	2	315	0.00	30.479 
09:35	41.9	41.9	41.9	83	37.1	0	2	22	0.00	30.479 
09:40	42.1	42.1	42.1	82	37.0	0	1	22	0.00	30.479 
09:45	42.3	42.3	42.3	81	36.9	0	1	22	0.00	30.475 
09:50	42.6	42.6	42.6	80	36.9	0	2	22	0.00	30.475 
09:55	43.1	43.1	43.1	79	37.0	0	1	45	0.00	30.475 
10:00	43.3	43.3	43.3	75	35.9	1	3	112	0.00	30.476 
10:05	43.6	43.6	43.6	73	35.5	0	1	112	0.00	30.476 
10:10	44.1	44.1	44.1	70	35.0	0	1	112	0.00	30.476 
10:15	44.3	44.3	44.3	67	34.0	0	2	112	0.00	30.474 
10:20	44.6	44.6	44.6	65	33.6	1	6	135	0.00	30.474 
10:25	44.9	44.9	44.9	63	33.1	1	4	112	0.00	30.474 
10:30	45.2	45.2	45.2	61	32.6	1	4	90	0.00	30.475 
10:35	45.5	45.5	45.5	61	32.8	0	3	112	0.00	30.475 
10:40	45.8	45.8	45.8	61	33.1	0	3	112	0.00	30.475 
10:45	46.1	46.1	46.1	61	33.4	1	4	112	0.00	30.476 
10:50	46.5	46.5	46.5	62	34.2	0	2	112	0.00	30.476 
10:55	46.7	46.7	46.7	61	34.0	0	1	112	0.00	30.476 
11:00	46.7	46.7	46.7	59	33.1	1	3	112	0.00	30.473 
11:05	46.8	46.8	46.8	60	33.7	0	3	112	0.00	30.473 
11:10	46.8	46.8	46.8	58	32.8	0	2	112	0.00	30.473 
11:15	47.1	47.1	47.1	60	33.9	0	3	112	0.00	30.476 
11:20	47.3	47.3	47.3	59	33.7	0	3	112	0.00	30.476 
11:25	47.4	47.4	47.4	59	33.8	0	2	135	0.00	30.476 
11:30	47.6	47.6	47.6	59	34.0	0	2	135	0.00	30.468 
11:35	47.7	47.7	47.7	58	33.7	0	1	135	0.00	30.468 
11:40	47.9	47.9	47.9	58	33.8	1	3	135	0.00	30.468 
11:45	48.0	48.0	48.0	59	34.4	0	4	112	0.00	30.464 
11:50	48.2	48.2	48.2	56	33.2	0	3	90	0.00	30.464 
11:55	48.3	48.3	48.3	56	33.3	0	3	90	0.00	30.464 
12:00	48.5	48.5	48.5	55	33.1	0	3	90	0.00	30.451 
12:05	48.6	48.6	48.6	56	33.6	0	3	90	0.00	30.451 
12:10	48.6	48.6	48.6	55	33.2	0	3	90	0.00	30.451 
12:15	48.6	48.6	48.6	53	32.3	1	4	112	0.00	30.446 
12:20	48.8	48.8	48.8	55	33.4	0	2	112	0.00	30.446 
12:25	48.8	48.8	48.8	55	33.4	0	3	112	0.00	30.446 
12:30	48.9	48.9	48.9	56	33.9	0	4	112	0.00	30.434 
12:35	49.1	49.1	49.1	54	33.2	0	1	112	0.00	30.434 
12:40	49.2	49.2	49.2	54	33.3	0	1	112	0.00	30.434 
12:45	49.5	49.5	49.5	54	33.6	0	1	112	0.00	30.426 
12:50	49.6	49.6	49.6	54	33.6	0	1	68	0.00	30.426 
12:55	49.6	49.6	49.6	54	33.6	0	3	68	0.00	30.426 
13:00	49.5	49.5	49.5	53	33.1	0	2	68	0.00	30.416 
13:05	49.5	49.5	49.5	53	33.1	0	2	68	0.00	30.416 
13:10	49.8	49.8	49.8	52	32.9	0	1	45	0.00	30.416 
13:15	49.8	49.8	49.8	50	31.9	1	3	90	0.00	30.411 
13:20	49.8	49.8	49.8	53	33.4	0	3	90	0.00	30.411 
13:25	49.8	49.8	49.8	52	32.9	1	2	90	0.00	30.411 
13:30	49.8	49.8	49.8	53	33.4	0	3	90	0.00	30.403 
13:35	49.9	49.9	49.9	53	33.5	0	2	90	0.00	30.403 
13:40	50.1	50.1	50.1	51	32.7	1	3	90	0.00	30.403 
13:45	50.2	50.2	50.2	52	33.3	0	2	90	0.00	30.400 
13:50	50.4	50.4	50.4	51	33.0	0	2	90	0.00	30.400 
13:55	50.4	50.4	50.4	52	33.4	0	1	90	0.00	30.400 
14:00	50.7	50.7	50.7	50	32.7	0	1	90	0.00	30.396 
14:05	50.5	50.5	50.5	48	31.5	1	3	90	0.00	30.396 
14:10	50.5	50.5	50.5	50	32.6	0	1	90	0.00	30.396 
14:15	50.8	50.8	50.8	49	32.3	0	1	90	0.00	30.392 
14:20	51.0	51.0	51.0	48	32.0	0	1	90	0.00	30.392 
14:25	51.1	51.1	51.1	50	33.1	0	3	90	0.00	30.392 
14:30	51.1	51.1	51.1	50	33.1	0	3	90	0.00	30.385 
14:35	51.0	51.0	51.0	49	32.5	0	2	90	0.00	30.385 
14:40	51.0	51.0	51.0	51	33.5	0	1	90	0.00	30.385 
14:45	50.8	50.8	50.8	49	32.3	1	3	90	0.00	30.376 
14:50	51.0	51.0	51.0	49	32.5	0	1	90	0.00	30.376 
14:55	51.3	51.3	51.3	48	32.3	0	3	90	0.00	30.376 
15:00	51.6	51.6	51.6	49	33.1	0	1	90	0.00	30.372 
15:05	51.4	51.4	51.4	48	32.4	0	1	90	0.00	30.372 
15:10	51.3	51.3	51.3	47	31.8	0	5	90	0.00	30.372 
15:15	51.1	51.1	51.1	48	32.1	0	1	90	0.00	30.369 
15:20	51.0	51.0	51.0	47	31.5	0	2	90	0.00	30.369 
15:25	51.0	51.0	51.0	48	32.0	0	1	90	0.00	30.369 
15:30	50.8	50.8	50.8	49	32.3	0	1	90	0.00	30.366 
15:35	50.8	50.8	50.8	50	32.8	0	1	90	0.00	30.366 
15:40	50.8	50.8	50.8	50	32.8	0	1	158	0.00	30.366 
15:45	51.0	51.0	51.0	49	32.5	0	1	158	0.00	30.363 
15:50	51.1	51.1	51.1	48	32.1	0	3	158	0.00	30.363 
15:55	51.1	51.1	51.1	49	32.6	0	1	158	0.00	30.363 
16:00	51.0	51.0	51.0	49	32.5	0	1	158	0.00	30.361 
16:05	50.8	50.8	50.8	50	32.8	0	1	158	0.00	30.361 
16:10	50.8	50.8	50.8	51	33.3	0	1	158	0.00	30.361 
16:15	50.7	50.7	50.7	49	32.2	0	1	158	0.00	30.357 
16:20	50.5	50.5	50.5	49	32.1	0	1	158	0.00	30.357 
16:25	50.5	50.5	50.5	51	33.1	0	1	158	0.00	30.357 
16:30	50.4	50.4	50.4	50	32.5	0	1	158	0.00	30.356 
16:35	50.2	50.2	50.2	50	32.3	0	1	158	0.00	30.356 
16:40	50.1	50.1	50.1	50	32.2	0	1	158	0.00	30.356 
16:45	49.9	49.9	49.9	51	32.5	0	0	---	0.00	30.355 
16:50	49.6	49.6	49.6	50	31.7	0	0	---	0.00	30.355 
16:55	49.5	49.5	49.5	51	32.1	0	0	---	0.00	30.355 
17:00	49.2	49.2	49.2	52	32.3	0	0	---	0.00	30.357 
17:05	49.1	49.1	49.1	52	32.2	0	1	158	0.00	30.357 
17:10	48.8	48.8	48.8	52	32.0	0	1	158	0.00	30.357 
17:15	48.6	48.6	48.6	53	32.3	0	0	---	0.00	30.355 
17:20	48.3	48.3	48.3	54	32.4	0	0	---	0.00	30.355 
17:25	48.0	48.0	48.0	54	32.2	0	0	---	0.00	30.355 
17:30	47.6	47.6	47.6	55	32.2	0	0	---	0.00	30.353 
17:35	47.1	47.1	47.1	56	32.2	0	0	---	0.00	30.353 
17:40	46.7	46.7	46.7	57	32.3	0	0	---	0.00	30.353 
17:45	46.1	46.1	46.1	58	32.2	0	0	---	0.00	30.357 
17:50	45.7	45.7	45.7	58	31.8	0	0	---	0.00	30.357 
17:55	45.2	45.2	45.2	60	32.1	0	0	---	0.00	30.357 
18:00	44.6	44.6	44.6	61	32.0	0	0	---	0.00	30.355 
18:05	44.2	44.2	44.2	62	32.0	0	0	---	0.00	30.355 
18:10	43.8	43.8	43.8	63	32.0	0	0	---	0.00	30.355 
18:15	43.3	43.3	43.3	64	32.0	0	0	---	0.00	30.358 
18:20	42.9	42.9	42.9	65	32.0	0	0	---	0.00	30.358 
18:25	42.5	42.5	42.5	65	31.6	0	0	---	0.00	30.358 
18:30	42.2	42.2	42.2	66	31.7	0	0	---	0.00	30.359 
18:35	41.8	41.8	41.8	67	31.7	0	0	---	0.00	30.359 
18:40	41.5	41.5	41.5	68	31.7	0	0	---	0.00	30.359 
18:45	41.1	41.1	41.1	69	31.7	0	0	---	0.00	30.361 
18:50	40.8	40.8	40.8	70	31.8	0	0	---	0.00	30.361 
18:55	40.5	40.5	40.5	71	31.8	0	0	---	0.00	30.361 
19:00	40.2	40.2	40.2	72	31.9	0	0	---	0.00	30.364 
19:05	40.1	40.1	40.1	73	32.2	0	0	---	0.00	30.364 
19:10	39.8	39.8	39.8	74	32.2	0	0	---	0.00	30.364 
19:15	39.5	39.5	39.5	74	31.9	0	0	---	0.00	30.363 
19:20	39.3	39.3	39.3	75	32.0	0	0	---	0.00	30.363 
19:25	39.1	39.1	39.1	75	31.9	0	0	---	0.00	30.363 
19:30	38.8	38.8	38.8	75	31.6	0	0	---	0.00	30.363 
19:35	38.6	38.6	38.6	76	31.7	0	0	---	0.00	30.363 
19:40	38.3	38.3	38.3	76	31.4	0	0	---	0.00	30.363 
19:45	38.2	38.2	38.2	76	31.3	0	0	---	0.00	30.366 
19:50	38.0	38.0	38.0	77	31.4	0	0	---	0.00	30.366 
19:55	37.9	37.9	37.9	77	31.3	0	0	---	0.00	30.366 
20:00	37.8	37.8	37.8	78	31.6	0	0	---	0.00	30.366 
20:05	37.6	37.6	37.6	78	31.4	0	0	---	0.00	30.366 
20:10	37.5	37.5	37.5	79	31.6	0	0	---	0.00	30.366 
20:15	37.3	37.3	37.3	79	31.4	0	0	---	0.00	30.356 
20:20	37.2	37.2	37.2	80	31.6	0	0	---	0.00	30.356 
20:25	37.0	37.0	37.0	81	31.7	0	0	---	0.00	30.356 
20:30	36.9	36.9	36.9	81	31.6	0	0	---	0.00	30.357 
20:35	36.8	36.8	36.8	81	31.5	0	0	---	0.00	30.357 
20:40	36.6	36.6	36.6	81	31.3	0	0	---	0.00	30.357 
20:45	36.3	36.3	36.3	82	31.3	0	0	---	0.00	30.352 
20:50	36.2	36.2	36.2	82	31.2	0	0	---	0.00	30.352 
20:55	36.0	36.0	36.0	83	31.3	0	0	---	0.00	30.352 
21:00	35.9	35.9	35.9	83	31.2	0	0	---	0.00	30.352 
21:05	35.8	35.8	35.8	83	31.2	0	0	---	0.00	30.352 
21:10	35.5	35.5	35.5	84	31.2	0	0	---	0.00	30.352 
21:15	35.5	35.5	35.5	84	31.2	0	0	---	0.00	30.350 
21:20	35.3	35.3	35.3	84	31.0	0	0	---	0.00	30.350 
21:25	35.2	35.2	35.2	84	30.9	0	0	---	0.00	30.350 
21:30	35.0	35.0	35.0	85	31.0	0	0	---	0.00	30.351 
21:35	34.9	34.9	34.9	86	31.1	0	0	---	0.00	30.351 
21:40	34.9	34.9	34.9	86	31.1	0	0	---	0.00	30.351 
21:45	34.7	34.7	34.7	86	30.9	0	0	---	0.00	30.356 
21:50	34.6	34.6	34.6	86	30.9	0	0	---	0.00	30.356 
21:55	34.4	34.4	34.4	86	30.7	0	0	---	0.00	30.356 
22:00	34.4	34.4	34.4	87	30.9	0	0	---	0.00	30.358 
22:05	34.3	34.3	34.3	87	30.8	0	0	---	0.00	30.358 
22:10	34.1	34.1	34.1	87	30.6	0	0	---	0.00	30.358 
22:15	34.0	34.0	34.0	87	30.5	0	0	---	0.00	30.355 
22:20	34.0	34.0	34.0	87	30.5	0	0	---	0.00	30.355 
22:25	33.8	33.8	33.8	87	30.3	0	0	---	0.00	30.355 
22:30	33.7	33.7	33.7	88	30.5	0	0	---	0.00	30.354 
22:35	33.5	33.5	33.5	88	30.3	0	0	---	0.00	30.354 
22:40	33.4	33.4	33.4	88	30.2	0	0	---	0.00	30.354 
22:45	33.2	33.2	33.2	88	30.0	0	0	---	0.00	30.351 
22:50	33.1	33.1	33.1	88	29.9	0	0	---	0.00	30.351 
22:55	33.1	33.1	33.1	88	29.9	0	0	---	0.00	30.351 
23:00	33.1	33.1	33.1	88	29.9	0	0	---	0.00	30.345 
23:05	32.9	32.9	32.9	88	29.7	0	0	---	0.00	30.345 
23:10	32.8	32.8	32.8	88	29.6	0	0	---	0.00	30.345 
23:15	32.7	32.7	32.7	88	29.5	0	0	---	0.00	30.339 
23:20	32.7	32.7	32.7	89	29.8	0	0	---	0.00	30.339 
23:25	32.5	32.5	32.5	89	29.6	0	0	---	0.00	30.339 
23:30	32.5	32.5	32.5	89	29.6	0	0	---	0.00	30.338 
23:35	32.4	32.4	32.4	89	29.5	0	0	---	0.00	30.338 
23:40	32.2	32.2	32.2	89	29.3	0	0	---	0.00	30.338 
23:45	32.4	32.4	32.4	89	29.5	0	0	---	0.00	30.338 
23:50	32.4	32.4	32.4	89	29.5	0	0	---	0.00	30.338 
23:55	32.4	32.4	32.4	90	29.8	0	0	---	0.00	30.338 

CoCoRaHS
IN-AL-39
A2 Web Hosting
Creative Commons License
GoDaddy
search engine by freefind advanced

loaded 2018-11-17 14:34:14 • last modified 2010-11-18 10:43:29
Privacy PolicyDisclaimer
• wx.awcolley.com is powered by PmWiki v.2002016 •
• all content (unless otherwise noted) © 2018 A W Colley